Time;durP1;ratioP1;P1;durP2;ratioP2;P2;SDS_P1;SDS_P2;PMS_P1;PMS_P2;Temp;Humidity;BMP_temperature;BMP_pressure;BME280_temperature;BME280_humidity;BME280_pressure;Samples;Min_cycle;Max_cycle;Signal;HPM_P1;HPM_P2
2023/03/01 00:01:17;;;;;;;24.10;14.52;;;0.10;99.90;;;;;;5025427;28;20056;-82
2023/03/01 00:03:44;;;;;;;23.80;15.38;;;0.10;99.90;;;;;;5021031;28;20050;-81
2023/03/01 00:06:11;;;;;;;29.27;14.43;;;0.10;99.90;;;;;;5017082;28;20054;-81
2023/03/01 00:08:39;;;;;;;23.30;14.73;;;0.00;99.90;;;;;;5041793;28;20105;-82
2023/03/01 00:11:26;;;;;;;22.80;13.98;;;0.00;99.90;;;;;;5031473;28;20580;-81
2023/03/01 00:13:55;;;;;;;23.73;15.45;;;0.00;99.90;;;;;;5030202;28;20050;-80
2023/03/01 00:16:28;;;;;;;23.33;14.13;;;0.00;99.90;;;;;;5013282;28;20042;-81
2023/03/01 00:18:57;;;;;;;21.65;13.50;;;0.00;99.90;;;;;;5019427;28;20465;-82
2023/03/01 00:21:24;;;;;;;23.35;14.55;;;-0.10;99.90;;;;;;5025773;28;20521;-83
2023/03/01 00:23:52;;;;;;;24.23;15.07;;;-0.10;99.90;;;;;;5023966;28;20565;-81
2023/03/01 00:26:20;;;;;;;20.42;14.02;;;-0.10;99.90;;;;;;5030090;28;20053;-81
2023/03/01 00:28:47;;;;;;;26.48;14.57;;;-0.10;99.90;;;;;;5025338;28;20056;-81
2023/03/01 00:31:17;;;;;;;21.20;13.30;;;-0.10;99.90;;;;;;5019407;28;20137;-82
2023/03/01 00:33:44;;;;;;;24.38;15.57;;;-0.10;99.90;;;;;;5022966;28;20531;-82
2023/03/01 00:36:13;;;;;;;23.95;15.10;;;-0.10;99.90;;;;;;5023752;28;20052;-81
2023/03/01 00:38:43;;;;;;;22.42;14.25;;;-0.10;99.90;;;;;;5025198;28;20049;-81
2023/03/01 00:41:12;;;;;;;21.02;14.75;;;-0.10;99.90;;;;;;5027308;28;20128;-81
2023/03/01 00:43:39;;;;;;;20.92;13.23;;;-0.10;99.90;;;;;;5018177;28;20053;-81
2023/03/01 00:46:14;;;;;;;23.80;14.40;;;-0.20;99.90;;;;;;5018554;28;20045;-82
2023/03/01 00:48:41;;;;;;;22.80;14.52;;;-0.20;99.90;;;;;;5021782;28;20057;-82
2023/03/01 00:51:17;;;;;;;22.55;15.00;;;-0.20;99.90;;;;;;5025329;28;20045;-80
2023/03/01 00:53:45;;;;;;;21.25;13.50;;;-0.20;99.90;;;;;;5029867;28;20045;-81
2023/03/01 00:56:14;;;;;;;22.80;14.63;;;-0.20;99.90;;;;;;5033828;28;20042;-81
2023/03/01 00:58:41;;;;;;;23.83;15.23;;;-0.20;99.90;;;;;;5013136;28;20046;-81
2023/03/01 01:01:16;;;;;;;25.95;14.80;;;-0.20;99.90;;;;;;5014749;28;20046;-81
2023/03/01 01:03:52;;;;;;;25.10;15.98;;;-0.30;99.90;;;;;;5021464;28;20057;-82
2023/03/01 01:06:22;;;;;;;23.42;14.75;;;-0.30;99.90;;;;;;5025432;28;20046;-82
2023/03/01 01:08:50;;;;;;;22.95;14.70;;;-0.30;99.90;;;;;;5027138;28;20053;-81
2023/03/01 01:11:17;;;;;;;21.88;14.93;;;-0.30;99.90;;;;;;5020909;28;20089;-82
2023/03/01 01:13:46;;;;;;;22.65;14.63;;;-0.30;99.90;;;;;;5033922;28;20543;-82
2023/03/01 01:16:14;;;;;;;22.05;14.18;;;-0.30;99.90;;;;;;5023056;28;20048;-82
2023/03/01 01:18:42;;;;;;;24.08;14.05;;;-0.40;99.90;;;;;;5026375;28;20670;-81
2023/03/01 01:21:11;;;;;;;23.27;13.80;;;-0.40;99.90;;;;;;5029371;28;20049;-81
2023/03/01 01:23:40;;;;;;;23.75;14.73;;;-0.40;99.90;;;;;;5025870;28;20045;-81
2023/03/01 01:26:09;;;;;;;20.27;13.80;;;-0.30;99.90;;;;;;5015892;28;20078;-81
2023/03/01 01:28:36;;;;;;;22.85;14.70;;;-0.40;99.90;;;;;;5019015;28;20053;-82
2023/03/01 01:31:04;;;;;;;24.45;14.82;;;-0.40;99.90;;;;;;5024323;28;20417;-81
2023/03/01 01:33:31;;;;;;;22.92;14.07;;;-0.40;99.90;;;;;;5037164;28;20053;-83
2023/03/01 01:35:57;;;;;;;22.95;14.07;;;-0.40;99.90;;;;;;5027195;28;20573;-81
2023/03/01 01:38:24;;;;;;;20.67;13.60;;;-0.40;99.90;;;;;;5034660;28;20049;-82
2023/03/01 01:40:51;;;;;;;22.70;13.68;;;-0.40;99.90;;;;;;5024191;28;20046;-82
2023/03/01 01:43:25;;;;;;;21.92;13.35;;;-0.50;99.90;;;;;;5019324;28;20049;-81
2023/03/01 01:46:06;;;;;;;23.45;13.40;;;-0.50;99.90;;;;;;5019648;28;20173;-81
2023/03/01 01:48:46;;;;;;;22.00;13.98;;;-0.50;99.90;;;;;;5029127;28;20053;-82
2023/03/01 01:51:18;;;;;;;22.30;13.07;;;-0.50;99.90;;;;;;5030704;28;20081;-82
2023/03/01 01:53:47;;;;;;;21.20;14.30;;;-0.50;99.90;;;;;;5025561;28;20513;-81
2023/03/01 01:56:16;;;;;;;24.80;14.25;;;-0.50;99.90;;;;;;5035071;28;20050;-81
2023/03/01 01:58:44;;;;;;;21.27;13.20;;;-0.50;99.90;;;;;;5027769;28;20045;-83
2023/03/01 02:01:11;;;;;;;24.50;15.40;;;-0.60;99.90;;;;;;5029932;28;20061;-81
2023/03/01 02:03:42;;;;;;;23.02;14.15;;;-0.60;99.90;;;;;;5033472;28;20132;-82
2023/03/01 02:06:19;;;;;;;26.85;15.15;;;-0.60;99.90;;;;;;5027598;28;20145;-81
2023/03/01 02:08:48;;;;;;;19.75;12.68;;;-0.60;99.90;;;;;;5023525;28;20529;-83
2023/03/01 02:11:17;;;;;;;22.02;14.35;;;-0.60;99.90;;;;;;5023486;28;20483;-81
2023/03/01 02:13:46;;;;;;;26.30;14.93;;;-0.70;99.90;;;;;;5026796;28;20140;-82
2023/03/01 02:16:14;;;;;;;23.88;13.88;;;-0.70;99.90;;;;;;5026597;28;20474;-81
2023/03/01 02:18:43;;;;;;;25.70;14.23;;;-0.70;99.90;;;;;;5031234;28;20061;-82
2023/03/01 02:21:27;;;;;;;27.25;15.38;;;-0.70;99.90;;;;;;5029271;28;20042;-82
2023/03/01 02:23:55;;;;;;;22.77;13.93;;;-0.80;99.90;;;;;;5022233;28;20146;-82
2023/03/01 02:26:42;;;;;;;25.35;14.95;;;-0.70;99.90;;;;;;5023437;28;20056;-81
2023/03/01 02:29:09;;;;;;;21.60;14.15;;;-0.80;99.90;;;;;;5029814;28;20492;-81
2023/03/01 02:31:41;;;;;;;23.63;13.88;;;-0.70;99.90;;;;;;5029864;28;20480;-81
2023/03/01 02:34:12;;;;;;;24.77;15.38;;;-0.80;99.90;;;;;;5029523;28;20046;-82
2023/03/01 02:36:48;;;;;;;21.85;13.93;;;-0.80;99.90;;;;;;5020428;28;20052;-82
2023/03/01 02:39:19;;;;;;;23.25;14.38;;;-0.80;99.90;;;;;;5024186;28;20526;-83
2023/03/01 02:41:51;;;;;;;24.23;15.20;;;-0.80;99.90;;;;;;5023450;28;20084;-82
2023/03/01 02:44:18;;;;;;;20.60;13.52;;;-0.80;99.90;;;;;;5030782;28;20073;-82
2023/03/01 02:46:51;;;;;;;24.13;13.77;;;-0.80;99.90;;;;;;5031139;28;20128;-82
2023/03/01 02:49:24;;;;;;;23.15;13.82;;;-0.80;99.90;;;;;;5027968;28;20060;-83
2023/03/01 02:51:55;;;;;;;23.90;14.15;;;-0.80;99.90;;;;;;5019965;28;20140;-82
2023/03/01 02:54:41;;;;;;;24.55;14.13;;;-0.80;99.90;;;;;;5023171;28;20140;-82
2023/03/01 02:57:08;;;;;;;23.95;14.48;;;-0.90;99.90;;;;;;5027584;28;20132;-83
2023/03/01 02:59:39;;;;;;;22.23;14.00;;;-0.90;99.90;;;;;;5027210;28;20045;-82
2023/03/01 03:02:35;;;;;;;24.17;13.60;;;-0.90;99.90;;;;;;5031505;28;20069;-82
2023/03/01 03:05:11;;;;;;;22.08;13.65;;;-0.90;99.90;;;;;;5043872;28;20079;-84
2023/03/01 03:07:41;;;;;;;23.40;14.18;;;-0.90;99.90;;;;;;5040029;28;20030;-81
2023/03/01 03:10:19;;;;;;;20.95;14.43;;;-0.90;99.90;;;;;;5042754;28;20054;-79
2023/03/01 03:12:51;;;;;;;20.90;13.52;;;-0.90;99.90;;;;;;5048631;28;20064;-81
2023/03/01 03:15:18;;;;;;;25.05;14.75;;;-1.00;99.90;;;;;;5031930;28;20046;-80
2023/03/01 03:17:45;;;;;;;23.17;13.50;;;-1.00;99.90;;;;;;5031284;28;20512;-81
2023/03/01 03:20:18;;;;;;;21.40;14.07;;;-1.00;99.90;;;;;;5024388;28;20053;-82
2023/03/01 03:22:48;;;;;;;23.13;14.15;;;-1.00;99.90;;;;;;5025360;28;20045;-82
2023/03/01 03:25:15;;;;;;;23.98;13.95;;;-1.00;99.90;;;;;;5025849;28;20049;-82
2023/03/01 03:27:44;;;;;;;25.52;14.38;;;-1.00;99.90;;;;;;5031141;28;20088;-82
2023/03/01 03:30:17;;;;;;;20.35;12.65;;;-1.00;99.90;;;;;;5031311;28;20053;-81
2023/03/01 03:32:51;;;;;;;22.48;13.68;;;-1.00;99.90;;;;;;5023297;28;20056;-83
2023/03/01 03:35:21;;;;;;;23.73;13.85;;;-1.10;99.90;;;;;;5026722;28;20056;-82
2023/03/01 03:38:03;;;;;;;25.42;14.68;;;-1.10;99.90;;;;;;5046721;28;20136;-82
2023/03/01 03:40:38;;;;;;;21.88;14.07;;;-1.10;99.90;;;;;;5029052;28;20149;-82
2023/03/01 03:43:13;;;;;;;22.92;14.15;;;-1.10;99.90;;;;;;5045552;28;20050;-81
2023/03/01 03:45:40;;;;;;;22.70;13.95;;;-1.10;99.90;;;;;;5027754;28;20052;-82
2023/03/01 03:48:11;;;;;;;25.20;14.73;;;-1.10;99.90;;;;;;5021522;28;20057;-81
2023/03/01 03:50:39;;;;;;;23.55;14.13;;;-1.20;99.90;;;;;;5022959;28;20041;-82
2023/03/01 03:53:10;;;;;;;23.00;13.50;;;-1.10;99.90;;;;;;5026207;28;20050;-82
2023/03/01 03:55:38;;;;;;;20.98;13.75;;;-1.20;99.90;;;;;;5028176;28;20511;-81
2023/03/01 03:58:10;;;;;;;23.73;13.13;;;-1.10;99.90;;;;;;5017312;28;20042;-81
2023/03/01 04:00:39;;;;;;;25.65;14.35;;;-1.20;99.90;;;;;;5011921;28;20422;-82
2023/03/01 04:03:07;;;;;;;21.92;13.30;;;-1.20;99.90;;;;;;5018234;28;20414;-82
2023/03/01 04:05:35;;;;;;;26.88;13.55;;;-1.20;99.90;;;;;;5022869;28;20486;-81
2023/03/01 04:08:02;;;;;;;25.35;14.65;;;-1.20;99.90;;;;;;5024557;28;20109;-82
2023/03/01 04:10:32;;;;;;;22.73;13.35;;;-1.20;99.90;;;;;;5029390;28;20489;-84
2023/03/01 04:12:58;;;;;;;23.02;13.25;;;-1.20;99.90;;;;;;5044676;28;20045;-81
2023/03/01 04:15:26;;;;;;;30.52;13.93;;;-1.20;99.90;;;;;;5021400;28;20046;-82
2023/03/01 04:17:54;;;;;;;23.33;14.35;;;-1.30;99.90;;;;;;5020977;28;20041;-82
2023/03/01 04:20:26;;;;;;;23.27;14.10;;;-1.30;99.90;;;;;;5027538;28;20128;-82
2023/03/01 04:22:57;;;;;;;23.13;13.68;;;-1.30;99.90;;;;;;5024747;28;20419;-81
2023/03/01 04:25:24;;;;;;;24.98;14.40;;;-1.30;99.90;;;;;;5027403;28;20050;-81
2023/03/01 04:27:50;;;;;;;21.70;14.13;;;-1.40;99.90;;;;;;5029110;28;20432;-81
2023/03/01 04:30:17;;;;;;;20.08;13.18;;;-1.40;99.90;;;;;;5018770;28;20057;-82
2023/03/01 04:32:44;;;;;;;24.30;14.07;;;-1.40;99.90;;;;;;5022480;28;20056;-81
2023/03/01 04:35:10;;;;;;;24.65;14.85;;;-1.40;99.90;;;;;;5021864;28;20038;-82
2023/03/01 04:37:37;;;;;;;25.90;15.20;;;-1.40;99.90;;;;;;5034589;28;20480;-81
2023/03/01 04:40:16;;;;;;;21.58;14.27;;;-1.40;99.90;;;;;;5030900;28;20037;-83
2023/03/01 04:42:43;;;;;;;25.02;14.50;;;-1.40;99.90;;;;;;5016884;28;20073;-82
2023/03/01 04:45:12;;;;;;;25.70;15.55;;;-1.40;99.90;;;;;;5013701;28;20057;-81
2023/03/01 04:47:41;;;;;;;21.38;14.27;;;-1.40;99.90;;;;;;5019125;28;20081;-82
2023/03/01 04:50:08;;;;;;;25.20;14.15;;;-1.50;99.90;;;;;;5026306;28;20064;-82
2023/03/01 04:52:35;;;;;;;23.02;13.82;;;-1.50;99.90;;;;;;5027225;28;20046;-82
2023/03/01 04:55:03;;;;;;;25.80;15.23;;;-1.50;99.90;;;;;;5026954;28;20045;-82
2023/03/01 04:57:30;;;;;;;26.60;15.02;;;-1.50;99.90;;;;;;5021446;28;20078;-81
2023/03/01 04:59:57;;;;;;;25.95;15.48;;;-1.50;99.90;;;;;;5022189;28;20050;-82
2023/03/01 05:02:24;;;;;;;25.70;15.15;;;-1.50;99.90;;;;;;5024016;28;20420;-81
2023/03/01 05:04:51;;;;;;;25.45;14.85;;;-1.50;99.90;;;;;;5027639;28;20128;-83
2023/03/01 05:07:19;;;;;;;21.75;14.40;;;-1.50;99.90;;;;;;5022753;28;20525;-82
2023/03/01 05:09:46;;;;;;;25.58;15.00;;;-1.50;99.90;;;;;;5028247;28;20073;-82
2023/03/01 05:12:14;;;;;;;24.05;15.18;;;-1.50;99.90;;;;;;5011928;28;20046;-82
2023/03/01 05:14:41;;;;;;;25.60;15.63;;;-1.50;99.90;;;;;;5022464;28;20049;-82
2023/03/01 05:17:08;;;;;;;24.25;14.20;;;-1.50;99.90;;;;;;5029324;28;20053;-82
2023/03/01 05:19:34;;;;;;;26.10;15.50;;;-1.60;99.90;;;;;;5031514;28;20515;-81
2023/03/01 05:22:01;;;;;;;27.05;16.08;;;-1.60;99.90;;;;;;5035241;28;20048;-81
2023/03/01 05:24:29;;;;;;;22.30;14.98;;;-1.60;99.90;;;;;;5031508;28;20122;-82
2023/03/01 05:26:55;;;;;;;28.65;15.55;;;-1.60;99.90;;;;;;5024725;28;20117;-81
2023/03/01 05:29:27;;;;;;;28.08;15.02;;;-1.60;99.90;;;;;;5036875;28;20046;-83
2023/03/01 05:31:59;;;;;;;23.90;15.52;;;-1.70;99.90;;;;;;5035400;28;20045;-81
2023/03/01 05:34:28;;;;;;;25.88;14.18;;;-1.70;99.90;;;;;;5040050;28;20077;-81
2023/03/01 05:36:54;;;;;;;27.60;16.40;;;-1.70;99.90;;;;;;5042579;28;20054;-82
2023/03/01 05:39:23;;;;;;;29.38;15.93;;;-1.70;99.90;;;;;;5038096;28;20041;-83
2023/03/01 05:41:58;;;;;;;30.55;16.88;;;-1.70;99.90;;;;;;5030255;28;20134;-83
2023/03/01 05:44:26;;;;;;;22.92;14.60;;;-1.70;99.90;;;;;;5026972;28;20052;-82
2023/03/01 05:46:53;;;;;;;26.23;16.42;;;-1.70;99.90;;;;;;5044816;28;20042;-83
2023/03/01 05:49:20;;;;;;;27.05;16.17;;;-1.70;99.90;;;;;;5050408;28;20045;-82
2023/03/01 05:51:53;;;;;;;28.70;16.58;;;-1.70;99.90;;;;;;5027204;28;20551;-83
2023/03/01 05:54:21;;;;;;;27.15;17.30;;;-1.70;99.90;;;;;;5015815;28;20042;-82
2023/03/01 05:56:48;;;;;;;31.73;17.63;;;-1.70;99.90;;;;;;5028435;28;20041;-82
2023/03/01 05:59:16;;;;;;;29.42;16.23;;;-1.70;99.90;;;;;;5027590;28;20046;-82
2023/03/01 06:01:43;;;;;;;27.52;16.08;;;-1.70;99.90;;;;;;5027337;28;20101;-82
2023/03/01 06:04:10;;;;;;;33.95;17.17;;;-1.70;99.90;;;;;;5032754;28;20050;-82
2023/03/01 06:06:37;;;;;;;29.73;17.02;;;-1.70;99.90;;;;;;5029335;28;20045;-82
2023/03/01 06:09:07;;;;;;;32.78;16.55;;;-1.70;99.90;;;;;;5021900;28;20542;-82
2023/03/01 06:11:34;;;;;;;28.65;16.13;;;-1.70;99.90;;;;;;5025893;28;20095;-81
2023/03/01 06:14:01;;;;;;;29.83;16.65;;;-1.70;99.90;;;;;;5026420;28;20419;-81
2023/03/01 06:16:28;;;;;;;32.70;16.83;;;-1.70;99.90;;;;;;5032603;28;20072;-82
2023/03/01 06:18:55;;;;;;;27.13;18.02;;;-1.70;99.90;;;;;;5031417;28;20052;-82
2023/03/01 06:21:22;;;;;;;26.85;15.65;;;-1.70;99.90;;;;;;5024703;28;20065;-82
2023/03/01 06:23:49;;;;;;;25.45;16.23;;;-1.70;99.90;;;;;;5022386;28;20515;-82
2023/03/01 06:26:16;;;;;;;27.70;16.60;;;-1.80;99.90;;;;;;5026020;28;20046;-81
2023/03/01 06:28:45;;;;;;;30.13;16.17;;;-1.80;99.90;;;;;;5037459;28;20069;-82
2023/03/01 06:31:12;;;;;;;36.70;20.02;;;-1.80;99.90;;;;;;5033133;28;20054;-82
2023/03/01 06:33:39;;;;;;;49.92;25.13;;;-1.80;99.90;;;;;;5032528;28;20061;-81
2023/03/01 06:36:07;;;;;;;37.42;20.75;;;-1.80;99.90;;;;;;5020816;28;20045;-82
2023/03/01 06:38:34;;;;;;;34.90;20.70;;;-1.80;99.90;;;;;;5021726;28;20512;-82
2023/03/01 06:41:01;;;;;;;36.00;20.17;;;-1.70;99.90;;;;;;5026842;28;20046;-82
2023/03/01 06:43:28;;;;;;;33.20;19.20;;;-1.70;99.90;;;;;;5041314;28;20461;-82
2023/03/01 06:45:55;;;;;;;29.52;16.83;;;-1.60;99.90;;;;;;5027954;28;20046;-83
2023/03/01 06:48:22;;;;;;;33.42;18.15;;;-1.60;99.90;;;;;;5035328;28;20049;-82
2023/03/01 06:50:49;;;;;;;37.95;20.85;;;-1.50;99.90;;;;;;5025555;28;20053;-82
2023/03/01 06:53:15;;;;;;;37.90;21.15;;;-1.50;99.90;;;;;;5023799;28;20528;-82
2023/03/01 06:55:42;;;;;;;35.05;19.58;;;-1.40;99.90;;;;;;5024478;28;20041;-82
2023/03/01 06:58:10;;;;;;;34.00;19.15;;;-1.40;99.90;;;;;;5029963;28;20624;-82
2023/03/01 07:00:36;;;;;;;36.60;19.17;;;-1.30;99.90;;;;;;5028168;28;20144;-82
2023/03/01 07:03:03;;;;;;;28.60;17.40;;;-1.20;99.90;;;;;;5026230;28;20046;-81
2023/03/01 07:05:30;;;;;;;38.28;19.08;;;-1.10;99.90;;;;;;5019066;28;20053;-82
2023/03/01 07:07:57;;;;;;;37.88;21.75;;;-1.00;99.90;;;;;;5024454;28;20050;-82
2023/03/01 07:10:24;;;;;;;36.17;20.35;;;-1.00;99.90;;;;;;5026539;28;20046;-82
2023/03/01 07:12:55;;;;;;;39.55;22.27;;;-0.90;99.90;;;;;;5023203;28;20077;-81
2023/03/01 07:15:21;;;;;;;41.65;21.88;;;-0.80;99.90;;;;;;5032027;28;20504;-81
2023/03/01 07:17:50;;;;;;;32.03;21.08;;;-0.80;99.90;;;;;;5022233;28;20042;-82
2023/03/01 07:20:19;;;;;;;31.90;20.77;;;-0.70;99.90;;;;;;5013941;28;20101;-83
2023/03/01 07:22:45;;;;;;;30.90;20.00;;;-0.60;99.90;;;;;;5032067;28;20101;-82
2023/03/01 07:25:12;;;;;;;30.60;18.48;;;-0.50;99.90;;;;;;5038697;28;20050;-81
2023/03/01 07:27:39;;;;;;;44.05;22.95;;;-0.50;99.90;;;;;;5028787;28;20417;-82
2023/03/01 07:30:06;;;;;;;49.65;23.42;;;-0.40;99.90;;;;;;5043517;28;20494;-82
2023/03/01 07:32:33;;;;;;;44.25;25.33;;;-0.30;99.90;;;;;;5014238;28;20049;-82
2023/03/01 07:35:00;;;;;;;45.75;25.65;;;-0.20;99.90;;;;;;5020860;28;20073;-82
2023/03/01 07:37:26;;;;;;;42.67;25.23;;;-0.10;99.90;;;;;;5024966;28;20046;-82
2023/03/01 07:39:53;;;;;;;42.65;24.15;;;-0.10;99.90;;;;;;5026598;28;20042;-81
2023/03/01 07:42:20;;;;;;;38.30;24.00;;;0.00;99.90;;;;;;5028478;28;20045;-82
2023/03/01 07:44:46;;;;;;;44.35;25.05;;;0.10;99.90;;;;;;5026806;28;20053;-82
2023/03/01 07:47:13;;;;;;;43.63;28.70;;;0.20;99.90;;;;;;5021479;28;20094;-82
2023/03/01 07:49:40;;;;;;;50.60;27.52;;;0.20;99.90;;;;;;5022848;28;20402;-82
2023/03/01 07:52:06;;;;;;;39.42;24.60;;;0.30;99.90;;;;;;5023942;28;20054;-81
2023/03/01 07:54:33;;;;;;;41.80;25.02;;;0.40;99.90;;;;;;5025945;28;20062;-81
2023/03/01 07:57:00;;;;;;;39.38;23.63;;;0.40;99.90;;;;;;5028529;28;20045;-82
2023/03/01 07:59:28;;;;;;;38.10;22.05;;;0.50;99.90;;;;;;5021990;28;20585;-82
2023/03/01 08:01:56;;;;;;;28.88;19.13;;;0.60;99.90;;;;;;5016055;28;20042;-82
2023/03/01 08:04:24;;;;;;;32.20;19.05;;;0.60;99.90;;;;;;5022034;28;20101;-82
2023/03/01 08:06:51;;;;;;;29.33;18.10;;;0.60;99.90;;;;;;5027249;28;20101;-82
2023/03/01 08:09:18;;;;;;;29.65;17.83;;;0.60;99.90;;;;;;5020461;28;20088;-81
2023/03/01 08:11:44;;;;;;;27.25;16.73;;;0.70;99.90;;;;;;5024260;28;20038;-83
2023/03/01 08:14:11;;;;;;;29.77;17.95;;;0.70;99.90;;;;;;5020329;28;20047;-83
2023/03/01 08:16:38;;;;;;;30.45;17.77;;;0.70;99.90;;;;;;5029463;28;20046;-81
2023/03/01 08:19:07;;;;;;;26.90;16.83;;;0.70;99.90;;;;;;5023531;28;20046;-83
2023/03/01 08:21:37;;;;;;;25.08;16.33;;;0.80;99.90;;;;;;5027555;28;20128;-82
2023/03/01 08:24:05;;;;;;;29.48;17.95;;;0.80;99.90;;;;;;5057139;28;20060;-81
2023/03/01 08:26:33;;;;;;;26.08;16.17;;;0.80;99.90;;;;;;5042558;28;20084;-82
2023/03/01 08:29:00;;;;;;;32.45;18.20;;;0.80;99.90;;;;;;5032803;28;20057;-83
2023/03/01 08:31:31;;;;;;;27.75;17.50;;;0.90;99.90;;;;;;5054172;28;20084;-83
2023/03/01 08:34:02;;;;;;;26.90;17.20;;;0.90;99.90;;;;;;5044551;28;20061;-82
2023/03/01 08:36:32;;;;;;;31.50;17.20;;;0.80;99.90;;;;;;5025105;28;20048;-82
2023/03/01 08:38:59;;;;;;;29.83;17.05;;;0.90;99.90;;;;;;5027807;28;20050;-82
2023/03/01 08:41:26;;;;;;;29.35;18.70;;;1.00;99.90;;;;;;5049606;28;20507;-82
2023/03/01 08:43:58;;;;;;;31.52;18.65;;;1.00;99.90;;;;;;5018534;28;20053;-82
2023/03/01 08:46:29;;;;;;;29.50;17.27;;;1.10;99.90;;;;;;5012334;28;20046;-81
2023/03/01 08:48:57;;;;;;;28.70;17.92;;;1.20;99.90;;;;;;5026621;28;20455;-82
2023/03/01 08:51:25;;;;;;;25.23;17.27;;;1.20;99.90;;;;;;5029128;28;20077;-83
2023/03/01 08:53:52;;;;;;;30.80;17.05;;;1.30;99.90;;;;;;5026167;28;20096;-83
2023/03/01 08:56:19;;;;;;;31.52;19.25;;;1.40;99.90;;;;;;5021745;28;20054;-82
2023/03/01 08:58:47;;;;;;;32.97;19.92;;;1.40;99.90;;;;;;5031894;28;20042;-81
2023/03/01 09:01:17;;;;;;;29.45;17.63;;;1.50;99.90;;;;;;5036803;28;20549;-82
2023/03/01 09:03:45;;;;;;;31.65;18.92;;;1.60;99.90;;;;;;5028952;28;20049;-80
2023/03/01 09:06:12;;;;;;;24.65;16.58;;;1.70;99.90;;;;;;5025877;28;20049;-82
2023/03/01 09:08:40;;;;;;;32.38;19.77;;;1.70;99.90;;;;;;5035212;28;20088;-84
2023/03/01 09:11:09;;;;;;;30.02;18.63;;;1.70;99.90;;;;;;5025952;28;20103;-82
2023/03/01 09:13:36;;;;;;;27.70;18.38;;;1.80;99.90;;;;;;5023691;28;20394;-82
2023/03/01 09:16:05;;;;;;;27.45;17.98;;;1.90;99.90;;;;;;5022316;28;20047;-83
2023/03/01 09:18:33;;;;;;;30.00;17.75;;;1.90;99.90;;;;;;5025127;28;20081;-82
2023/03/01 09:21:06;;;;;;;28.08;16.20;;;1.90;99.90;;;;;;5022461;28;20053;-83
2023/03/01 09:23:38;;;;;;;27.85;17.73;;;1.80;99.90;;;;;;5029520;28;20037;-82
2023/03/01 09:26:08;;;;;;;27.05;16.45;;;1.80;99.90;;;;;;5011289;28;20064;-84
2023/03/01 09:28:35;;;;;;;26.40;17.15;;;1.80;99.90;;;;;;5015944;28;20049;-82
2023/03/01 09:31:03;;;;;;;23.45;15.10;;;1.70;99.90;;;;;;5019380;28;20042;-83
2023/03/01 09:33:31;;;;;;;26.80;16.67;;;1.70;99.90;;;;;;5020757;28;20090;-84
2023/03/01 09:36:00;;;;;;;28.10;17.27;;;1.70;99.90;;;;;;5016067;28;20042;-83
2023/03/01 09:38:27;;;;;;;27.23;17.73;;;1.70;99.90;;;;;;5016181;28;20046;-82
2023/03/01 09:40:54;;;;;;;33.42;17.15;;;1.70;99.90;;;;;;5014103;28;20038;-81
2023/03/01 09:43:26;;;;;;;28.08;16.75;;;1.70;99.90;;;;;;5027828;28;20046;-80
2023/03/01 09:45:55;;;;;;;28.52;17.23;;;1.80;99.90;;;;;;5018792;28;20140;-81
2023/03/01 09:48:27;;;;;;;26.80;17.10;;;1.80;99.90;;;;;;5020297;28;20051;-83
2023/03/01 09:50:54;;;;;;;30.90;17.65;;;2.00;99.90;;;;;;5022288;28;20056;-82
2023/03/01 09:53:25;;;;;;;29.30;17.85;;;2.00;99.90;;;;;;5014942;28;20466;-83
2023/03/01 09:56:01;;;;;;;28.63;17.58;;;2.10;99.90;;;;;;5016360;28;20058;-84
2023/03/01 09:58:57;;;;;;;25.65;15.90;;;2.30;99.90;;;;;;5012894;28;20043;-82
2023/03/01 10:01:32;;;;;;;28.48;17.00;;;2.30;99.90;;;;;;5016782;28;20042;-83
2023/03/01 10:04:08;;;;;;;30.83;17.77;;;2.30;99.90;;;;;;5014251;28;20406;-83
2023/03/01 10:06:35;;;;;;;29.40;17.38;;;2.40;99.90;;;;;;5029457;28;20058;-83
2023/03/01 10:09:10;;;;;;;25.17;15.95;;;2.50;99.90;;;;;;5017408;28;20129;-82
2023/03/01 10:11:41;;;;;;;25.92;16.92;;;2.60;99.90;;;;;;5006496;28;20054;-86
2023/03/01 10:14:35;;;;;;;35.53;19.05;;;2.60;99.90;;;;;;5014410;28;20084;-83
2023/03/01 10:17:23;;;;;;;28.67;16.55;;;2.50;99.90;;;;;;5026098;28;20044;-83
2023/03/01 10:19:50;;;;;;;28.02;16.95;;;2.60;99.90;;;;;;5016781;28;20121;-84
2023/03/01 10:22:31;;;;;;;26.52;16.95;;;2.60;99.90;;;;;;5011789;28;20047;-83
2023/03/01 10:25:02;;;;;;;28.38;18.02;;;2.70;99.90;;;;;;5017378;28;20504;-84
2023/03/01 10:27:44;;;;;;;26.52;17.45;;;2.70;99.90;;;;;;5020982;28;20060;-82
2023/03/01 10:30:20;;;;;;;27.50;17.10;;;2.80;99.90;;;;;;5015019;28;20112;-82
2023/03/01 10:32:50;;;;;;;24.98;15.77;;;2.80;99.90;;;;;;5013899;28;20129;-83
2023/03/01 10:35:32;;;;;;;27.10;16.95;;;2.80;99.90;;;;;;5016451;28;20042;-83
2023/03/01 10:38:06;;;;;;;25.83;16.15;;;2.80;99.90;;;;;;5017064;28;20052;-83
2023/03/01 10:40:35;;;;;;;25.73;16.60;;;2.70;99.90;;;;;;5013886;28;20072;-83
2023/03/01 10:43:04;;;;;;;28.45;16.45;;;2.80;99.90;;;;;;5031885;28;20464;-83
2023/03/01 10:45:40;;;;;;;28.73;17.23;;;2.80;99.90;;;;;;5016613;28;20402;-83
2023/03/01 10:48:28;;;;;;;29.23;15.73;;;2.90;99.90;;;;;;5026698;28;20133;-83
2023/03/01 10:50:58;;;;;;;26.95;16.60;;;2.90;99.90;;;;;;5019135;28;20041;-81
2023/03/01 10:53:35;;;;;;;28.10;18.05;;;2.80;99.90;;;;;;5021514;28;20506;-80
2023/03/01 10:56:09;;;;;;;27.10;16.83;;;2.90;99.90;;;;;;5021765;28;20037;-84
2023/03/01 10:58:38;;;;;;;27.85;16.23;;;2.90;99.90;;;;;;5018443;28;20049;-82
2023/03/01 11:01:16;;;;;;;25.63;16.30;;;3.00;99.90;;;;;;5037962;28;20045;-82
2023/03/01 11:03:43;;;;;;;25.80;16.20;;;3.20;99.90;;;;;;5032957;28;20046;-83
2023/03/01 11:06:13;;;;;;;26.23;17.13;;;3.20;99.90;;;;;;5016367;28;20053;-81
2023/03/01 11:08:45;;;;;;;28.08;17.30;;;3.20;99.90;;;;;;5023264;28;20393;-82
2023/03/01 11:11:31;;;;;;;28.98;18.45;;;3.30;99.90;;;;;;5021597;28;20057;-82
2023/03/01 11:14:16;;;;;;;30.20;17.45;;;3.30;99.90;;;;;;5021465;28;20520;-83
2023/03/01 11:17:05;;;;;;;27.30;18.42;;;3.30;99.90;;;;;;5021001;28;20045;-82
2023/03/01 11:19:32;;;;;;;27.42;17.73;;;3.30;99.90;;;;;;5017437;28;20457;-84
2023/03/01 11:22:20;;;;;;;30.42;17.75;;;3.30;99.90;;;;;;5020884;28;20128;-84
2023/03/01 11:24:52;;;;;;;26.88;18.08;;;3.40;99.90;;;;;;5023040;28;20048;-84
2023/03/01 11:27:41;;;;;;;27.48;17.48;;;3.50;99.90;;;;;;5020355;28;20074;-86
2023/03/01 11:30:44;;;;;;;29.40;17.67;;;3.70;99.90;;;;;;5040488;28;20053;-85
2023/03/01 11:33:36;;;;;;;27.83;17.33;;;3.70;99.90;;;;;;5028831;28;20046;-83
2023/03/01 11:36:49;;;;;;;26.02;17.30;;;3.80;99.90;;;;;;5021349;28;20121;-83
2023/03/01 11:39:34;;;;;;;31.52;18.85;;;3.80;99.90;;;;;;5016975;28;20390;-83
2023/03/01 11:42:14;;;;;;;29.25;18.77;;;4.00;99.90;;;;;;5018020;28;20125;-82
2023/03/01 11:44:48;;;;;;;26.70;16.80;;;4.10;99.90;;;;;;5017670;28;20096;-84
2023/03/01 11:47:40;;;;;;;28.63;17.70;;;4.20;99.90;;;;;;5015017;28;20050;-82
2023/03/01 11:50:15;;;;;;;27.08;16.85;;;4.30;99.90;;;;;;5022348;28;20053;-83
2023/03/01 11:52:48;;;;;;;26.52;16.73;;;4.30;99.90;;;;;;5018470;28;20121;-84
2023/03/01 11:55:18;;;;;;;26.55;17.27;;;4.30;99.90;;;;;;5017533;28;20091;-84
2023/03/01 11:57:56;;;;;;;30.02;19.17;;;4.40;99.90;;;;;;5027369;28;20045;-84
2023/03/01 12:01:07;;;;;;;25.85;17.17;;;4.50;99.90;;;;;;5017208;28;20425;-83
2023/03/01 12:03:47;;;;;;;26.60;18.67;;;4.60;99.90;;;;;;5020364;28;20042;-83
2023/03/01 12:06:34;;;;;;;27.25;17.75;;;4.70;99.90;;;;;;5024430;28;20133;-84
2023/03/01 12:09:07;;;;;;;30.73;17.85;;;4.80;99.90;;;;;;5026564;28;20045;-85
2023/03/01 12:12:09;;;;;;;26.25;16.85;;;4.90;99.90;;;;;;5021196;28;20053;-83
2023/03/01 12:14:59;;;;;;;28.67;17.40;;;5.00;99.90;;;;;;5031913;28;20069;-84
2023/03/01 12:17:32;;;;;;;29.30;17.80;;;5.10;99.90;;;;;;5018819;28;20052;-83
2023/03/01 12:20:14;;;;;;;27.73;16.65;;;5.20;99.90;;;;;;5024321;28;20113;-84
2023/03/01 12:22:49;;;;;;;27.00;16.67;;;5.30;99.90;;;;;;5024615;28;20042;-83
2023/03/01 12:25:20;;;;;;;25.95;16.90;;;5.40;99.90;;;;;;5030925;28;20057;-84
2023/03/01 12:28:04;;;;;;;27.77;17.13;;;5.40;99.90;;;;;;5015236;28;20042;-83
2023/03/01 12:30:56;;;;;;;27.83;16.20;;;5.50;99.90;;;;;;5013967;28;20073;-83
2023/03/01 12:33:32;;;;;;;25.80;17.35;;;5.60;99.90;;;;;;5038163;28;20109;-84
2023/03/01 12:36:50;;;;;;;31.10;18.50;;;5.70;99.90;;;;;;5027245;28;20125;-84
2023/03/01 12:39:39;;;;;;;25.98;16.73;;;5.70;99.90;;;;;;5011621;28;20060;-84
2023/03/01 12:42:22;;;;;;;27.95;17.98;;;5.80;99.90;;;;;;5015887;28;20046;-84
2023/03/01 12:45:15;;;;;;;26.77;16.65;;;5.90;99.90;;;;;;5016802;28;20077;-84
2023/03/01 12:48:01;;;;;;;27.30;16.25;;;6.00;99.90;;;;;;5012578;28;20129;-83
2023/03/01 12:50:39;;;;;;;28.25;17.73;;;6.00;99.90;;;;;;5014073;28;20608;-84
2023/03/01 12:53:21;;;;;;;24.00;16.63;;;6.00;99.90;;;;;;5052048;28;20060;-84